Carthage's Hourly Summary for Wednesday, January 19, 2022
Hour Temp
(f)
RH
(%)
Solar Rad.
(MJ/m2)
Rainfall
(in)
Wind
(mph)
Battery
(volts)
1/19/2022 12:00 AM 56 88 0 0 4.85 0
1/19/2022 1:00 AM 56 90 0 0 3.65 0
1/19/2022 2:00 AM 57 91 0 0 4.07 0
1/19/2022 3:00 AM 57 92 0 0 2.77 0
1/19/2022 4:00 AM 58 91 0 0 3.54 0
1/19/2022 5:00 AM 59 90 0 0 4.38 0
1/19/2022 6:00 AM 59 89 0 0 4.73 0
1/19/2022 7:00 AM 59 90 0.02 0 4.03 0
1/19/2022 8:00 AM 61 88 0.11 0 5.89 0
1/19/2022 9:00 AM 66 79 0.23 0 8.53 0
1/19/2022 10:00 AM 68 77 0.13 0 10.08 0
1/19/2022 11:00 AM 68 77 0.18 0 8.45 0
1/19/2022 12:00 PM 70 71 0.23 0 9.73 0
1/19/2022 1:00 PM 72 66 0.22 0 6.39 0
1/19/2022 2:00 PM 72 63 0.29 0 7.23 0
1/19/2022 3:00 PM 74 55 0.29 0 4.65 0
1/19/2022 4:00 PM 73 55 0.11 0 3.51 0
1/19/2022 5:00 PM 70 61 0 0 2.17 0
1/19/2022 6:00 PM 59 86 0 0 6.46 0
1/19/2022 7:00 PM 57 89 0 0 5 0
1/19/2022 8:00 PM 53 87 0 0 6.44 0
1/19/2022 9:00 PM 50 83 0 0 5.95 0
1/19/2022 10:00 PM 49 81 0 0 7.97 0
1/19/2022 11:00 PM 46 86 0 0 7.83 0
Data Summary 61 80 1.81 0.00 5.76 0.00